Terminal Aerodrome Forecast
Issued by NWS Upton, NY

Home | Current Version | Previous Version | Text Only | Print | Product List | Glossary On
Versions: 1 2 3 4 5 6 7 8 9 10 11 12 13 14 15 16 17 18 19 20 21 22 23 24 25 26 27 28 29 30 31 32 33 34 35 36 37
000
FTUS41 KOKX 101700
TAFEWR
TAF
KEWR 101732Z 1018/1124 03008KT P6SM FEW080 SCT150 BKN250
     FM102000 08008KT P6SM SCT060 SCT250
     FM110200 VRB03KT P6SM SCT050 BKN150
     FM110500 VRB03KT P6SM FEW008 SCT050 BKN120
     FM111400 05008KT P6SM FEW050 SCT120
     FM111800 08010KT P6SM SCT060 SCT150
     FM112100 12010KT P6SM SCT050 SCT150=

USA.gov is the U.S. government's official web portal to all federal, state and local government web resources and services.